• Join FlightAware (Why Join?)
  • Login
  • US Flag 
04:40PM EST


 

Airport Tracker/Info


-or-


 

Live Flight TrackerFlight Track Log ✈ EJA922 ✈ 31-Aug-2013 ✈ KHPN - KRDU

Flight Track Log - Related Links

Times and Time Zones

All times are in EDT time to prevent confusion due to time zone crossing. See the EJA922 flight status page for this flight to view local times or setup timezone preferences in your user account.

Time Position Orientation Groundspeed Altitude Reporting Facility
EDT Latitude Longitude Course Direction KTS MPH feet Rate Location/Type
07:46AM 41.0333 -73.7167 294° West 191 220 2,500  Level New York TRACON
07:47AM 41.0500 -73.7667 294° West 196 226 3,700 1,500 Climbing New York TRACON
07:48AM 41.0333 -73.8500 255° West 235 270 5,600 2,280 Climbing New York TRACON
07:49AM 41.0000 -73.9333 242° Southwest 265 305 8,300 2,700 Climbing New York TRACON
07:50AM 40.9500 -74.0000 225° Southwest 279 321 11,000 1,860 Climbing New York TRACON
07:51AM 40.8833 -74.0833 223° Southwest 336 387 12,100 540 Climbing New York TRACON
07:52AM 40.8000 -74.1833 222° Southwest 386 444 12,100 600 Level New York TRACON
07:53AM 40.7167 -74.2667 217° Southwest 422 486 13,300 1,860 Climbing New York TRACON
07:55AM 40.5097 -74.2706 181° South 403 464 17,800 2,040 Climbing New York Center
07:56AM 40.3850 -74.2642 178° South 403 464 19,500 1,560 Climbing New York Center
07:57AM 40.2725 -74.2611 179° South 409 471 21,000 1,440 Climbing New York Center
07:58AM 40.1589 -74.2933 192° South 408 470 22,400 960 Climbing New York Center
08:00AM 39.9894 -74.4542 216° Southwest 428 493 24,000 720 Climbing Washington Center
08:01AM 39.8800 -74.5586 216° Southwest 444 511 24,700 1,260 Climbing Washington Center
08:02AM 39.7806 -74.6547 217° Southwest 451 519 26,600 1,680 Climbing Washington Center
08:03AM 39.6833 -74.7475 216° Southwest 451 519 28,200 1,320 Climbing Washington Center
08:04AM 39.5842 -74.8431 217° Southwest 451 519 29,300 1,080 Climbing Washington Center
08:05AM 39.4825 -74.9381 216° Southwest 451 519 30,400 960 Climbing Washington Center
08:06AM 39.3808 -75.0331 216° Southwest 456 525 31,300 960 Climbing Washington Center
08:07AM 39.2686 -75.1169 210° Southwest 461 531 32,400 960 Climbing Washington Center
08:08AM 39.1522 -75.2008 209° Southwest 471 542 33,300 780 Climbing Washington Center
08:09AM 39.0339 -75.2844 209° Southwest 477 549 34,000 300 Climbing Washington Center
08:10AM 38.9153 -75.3675 209° Southwest 482 555 34,000  Level Washington Center
08:11AM 38.7986 -75.4478 208° Southwest 487 560 34,000  Level Washington Center
08:12AM 38.6778 -75.5306 208° Southwest 487 560 34,000  Level Washington Center
08:13AM 38.5608 -75.6131 209° Southwest 487 560 34,000  Level Washington Center
08:14AM 38.4400 -75.6950 208° Southwest 487 560 34,000  Level Washington Center
08:15AM 38.3064 -75.7850 208° Southwest 487 560 34,000  Level Washington Center
08:16AM 38.1875 -75.8664 208° Southwest 493 567 34,000  Level Washington Center
08:17AM 38.0664 -75.9506 209° Southwest 493 567 34,000  Level Washington Center
08:18AM 37.9450 -76.0367 209° Southwest 499 574 34,000  Level Washington Center
08:19AM 37.8239 -76.1150 207° Southwest 494 568 34,000 -420 Level Washington Center
08:20AM 37.7044 -76.1956 208° Southwest 494 568 33,200 -1,860 Descending Washington Center
08:21AM 37.5769 -76.2811 208° Southwest 500 575 30,400 -2,820 Descending Washington Center
08:22AM 37.4511 -76.3661 208° Southwest 511 588 27,700 -2,760 Descending Washington Center
08:23AM 37.3256 -76.4511 208° Southwest 516 594 24,900 -1,860 Descending Washington Center
08:24AM 37.2225 -76.5492 217° Southwest 478 550 24,000 -480 Descending Washington Center
08:25AM 37.1464 -76.6706 232° Southwest 461 531 24,000  Level Washington Center
08:26AM 37.0700 -76.7919 232° Southwest 456 525 24,000 -360 Level Washington Center
08:27AM 36.9917 -76.9103 230° Southwest 451 519 23,300 -540 Descending Washington Center
08:28AM 36.9153 -77.0311 232° Southwest 446 513 23,000 -180 Descending Washington Center
08:29AM 36.8386 -77.1517 232° Southwest 446 513 23,000  Level Washington Center
08:30AM 36.7578 -77.2719 230° Southwest 446 513 23,000  Level Washington Center
08:31AM 36.6786 -77.3944 231° Southwest 452 520 23,000  Level Washington Center
08:32AM 36.5997 -77.5142 231° Southwest 452 520 23,000 -900 Level Washington Center
08:33AM 36.5206 -77.6364 231° Southwest 452 520 21,300 -2,040 Descending Washington Center
08:34AM 36.4431 -77.7608 232° Southwest 457 526 18,900 -2,280 Descending Washington Center
08:35AM 36.3744 -77.8647 231° Southwest 457 526 16,800 -2,160 Descending Washington Center
08:36AM 36.3036 -77.9708 230° Southwest 432 497 14,600 -2,160 Descending Washington Center
08:37AM 36.2325 -78.0744 230° Southwest 415 478 12,500 -2,100 Descending Washington Center
08:38AM 36.1658 -78.1778 231° Southwest 376 433 10,500 -1,860 Descending Washington Center
08:39AM 36.1439 -78.2233 239° Southwest 285 328 9,800 -1,500 Descending Washington Center
08:39AM 36.1325 -78.2639 251° West 298 343 9,000 -1,620 Descending Washington Center
08:40AM 36.1189 -78.3100 250° West 256 295 8,200 -1,680 Descending Washington Center
08:40AM 36.1075 -78.3533 252° West 276 318 7,300 -1,740 Descending Washington Center
08:41AM 36.0939 -78.4042 252° West 267 307 6,300 -1,620 Descending Washington Center
08:42AM 36.0731 -78.4908 253° West 266 306 4,700 -1,620 Descending Washington Center
08:43AM 36.0478 -78.5797 251° West 257 296 3,100 -900 Descending Washington Center
08:44AM 36.0175 -78.6275 232° Southwest 209 241 3,100 -240 Level Washington Center
08:45AM 35.9764 -78.6772 224° Southwest 172 198 2,700 -660 Descending Washington Center
08:46AM 35.9419 -78.7194 225° Southwest 157 181 1,800 -720 Descending Washington Center
08:47AM 35.9183 -78.7492 226° Southwest 114 131 1,200 -660 Descending Washington Center
08:48AM 35.8947 -78.7764 223° Southwest 129 148 600 -660 Descending Washington Center
08:50AM 35.8776 -78.7875 349° North  Level Estimated
08:57AM 35.8776 -78.7875 349° North  Level Estimated
08:58AM 35.8776 -78.7875 349° North  Level Estimated
08:59AM 35.8776 -78.7875 349° North  Level Estimated
09:00AM 35.8776 -78.7875 349° North  Level Estimated
09:01AM 35.8776 -78.7875 349° North  Level Estimated
09:02AM 35.8776 -78.7875 349° North  Level Estimated